Time;durP1;ratioP1;P1;durP2;ratioP2;P2;SDS_P1;SDS_P2;PMS_P1;PMS_P2;Temp;Humidity;BMP_temperature;BMP_pressure;BME280_temperature;BME280_humidity;BME280_pressure;Samples;Min_cycle;Max_cycle;Signal;HPM_P1;HPM_P2
2022/12/16 00:01:13;;;;;;;0.00;0.00;;;1.90;91.50;;;;;;5050766;28;20032;-66
2022/12/16 00:03:40;;;;;;;0.10;0.10;;;1.90;91.60;;;;;;5049621;28;20037;-66
2022/12/16 00:06:07;;;;;;;0.00;0.00;;;1.90;91.60;;;;;;5050109;28;20116;-66
2022/12/16 00:08:35;;;;;;;0.10;0.10;;;1.90;91.60;;;;;;5048205;28;20045;-66
2022/12/16 00:11:02;;;;;;;0.00;0.00;;;1.90;91.70;;;;;;5046353;28;20482;-66
2022/12/16 00:13:30;;;;;;;0.00;0.00;;;1.90;91.70;;;;;;5048609;28;20048;-67
2022/12/16 00:15:56;;;;;;;0.00;0.00;;;1.90;91.70;;;;;;5048497;28;20099;-66
2022/12/16 00:18:22;;;;;;;0.00;0.00;;;1.90;91.70;;;;;;5048404;28;20099;-66
2022/12/16 00:20:52;;;;;;;0.00;0.00;;;1.90;91.80;;;;;;5046897;28;20463;-66
2022/12/16 00:23:18;;;;;;;0.00;0.00;;;1.80;91.80;;;;;;5039544;28;20395;-67
2022/12/16 00:25:45;;;;;;;0.10;0.10;;;1.80;91.80;;;;;;5046998;28;20056;-66
2022/12/16 00:28:12;;;;;;;0.00;0.00;;;1.80;91.80;;;;;;5048620;28;20512;-66
2022/12/16 00:30:38;;;;;;;0.00;0.00;;;1.80;91.70;;;;;;5048273;28;20116;-66
2022/12/16 00:33:04;;;;;;;0.00;0.00;;;1.70;91.70;;;;;;5044985;28;20481;-66
2022/12/16 00:35:30;;;;;;;0.00;0.00;;;1.70;91.70;;;;;;5048011;28;20044;-67
2022/12/16 00:37:56;;;;;;;0.00;0.00;;;1.70;91.60;;;;;;5048542;28;20084;-66
2022/12/16 00:40:22;;;;;;;0.00;0.00;;;1.70;91.50;;;;;;5047995;28;20116;-67
2022/12/16 00:42:48;;;;;;;0.00;0.00;;;1.70;91.50;;;;;;5047652;28;20438;-66
2022/12/16 00:45:14;;;;;;;0.05;0.05;;;1.60;91.50;;;;;;5052116;28;20079;-67
2022/12/16 00:47:40;;;;;;;0.00;0.00;;;1.60;91.50;;;;;;5050798;28;20049;-66
2022/12/16 00:50:06;;;;;;;0.00;0.00;;;1.60;91.50;;;;;;5051696;28;20056;-66
2022/12/16 00:52:32;;;;;;;0.00;0.00;;;1.60;91.50;;;;;;5051771;28;20085;-67
2022/12/16 00:54:57;;;;;;;0.00;0.00;;;1.60;91.40;;;;;;5052459;28;20509;-67
2022/12/16 00:57:23;;;;;;;0.00;0.00;;;1.60;91.40;;;;;;5050335;28;20127;-67
2022/12/16 00:59:48;;;;;;;0.10;0.10;;;1.60;91.40;;;;;;5050653;28;20047;-66
2022/12/16 01:02:14;;;;;;;0.00;0.00;;;1.60;91.40;;;;;;5051150;28;20041;-66
2022/12/16 01:04:40;;;;;;;0.00;0.00;;;1.60;91.30;;;;;;5052378;28;20099;-66
2022/12/16 01:07:05;;;;;;;0.00;0.00;;;1.60;91.30;;;;;;5049942;28;20573;-67
2022/12/16 01:09:31;;;;;;;0.00;0.00;;;1.50;91.20;;;;;;5051382;28;20098;-67
2022/12/16 01:11:57;;;;;;;0.00;0.00;;;1.50;91.20;;;;;;5052008;28;20063;-66
2022/12/16 01:14:22;;;;;;;0.05;0.05;;;1.50;91.10;;;;;;5051088;28;20041;-67
2022/12/16 01:16:48;;;;;;;0.00;0.00;;;1.50;91.10;;;;;;5046918;28;20052;-66
2022/12/16 01:19:13;;;;;;;0.00;0.00;;;1.40;91.00;;;;;;5051133;28;20436;-67
2022/12/16 01:21:39;;;;;;;0.10;0.10;;;1.40;91.00;;;;;;5051687;28;20037;-67
2022/12/16 01:24:05;;;;;;;0.00;0.00;;;1.40;90.90;;;;;;5051273;28;20092;-67
2022/12/16 01:26:30;;;;;;;0.00;0.00;;;1.40;90.90;;;;;;5050909;28;20047;-66
2022/12/16 01:28:57;;;;;;;0.00;0.00;;;1.30;90.80;;;;;;5031806;28;20049;-66
2022/12/16 01:31:23;;;;;;;0.00;0.00;;;1.30;90.70;;;;;;5049078;28;20489;-66
2022/12/16 01:33:49;;;;;;;0.00;0.00;;;1.30;90.70;;;;;;5051563;28;20041;-67
2022/12/16 01:36:16;;;;;;;0.00;0.00;;;1.30;90.60;;;;;;5051181;28;20077;-67
2022/12/16 01:38:43;;;;;;;0.00;0.00;;;1.20;90.50;;;;;;5051423;28;20067;-66
2022/12/16 01:41:10;;;;;;;0.00;0.00;;;1.20;90.40;;;;;;5050581;28;20118;-66
2022/12/16 01:43:38;;;;;;;0.00;0.00;;;1.20;90.40;;;;;;5051236;28;20076;-67
2022/12/16 01:46:13;;;;;;;0.10;0.10;;;1.20;90.30;;;;;;5051097;28;20072;-66
2022/12/16 01:48:52;;;;;;;0.10;0.10;;;1.20;90.20;;;;;;5051396;28;20104;-66
2022/12/16 01:51:39;;;;;;;0.00;0.00;;;1.20;90.10;;;;;;5047299;28;20045;-66
2022/12/16 01:54:14;;;;;;;0.15;0.15;;;1.20;90.00;;;;;;5050487;28;20052;-66
2022/12/16 01:56:44;;;;;;;0.10;0.10;;;1.20;90.00;;;;;;5050112;28;20041;-66
2022/12/16 01:59:12;;;;;;;0.00;0.00;;;1.10;89.90;;;;;;5050362;28;20413;-67
2022/12/16 02:01:38;;;;;;;0.00;0.00;;;1.20;89.80;;;;;;5050104;28;20037;-67
2022/12/16 02:04:04;;;;;;;0.05;0.05;;;1.10;89.70;;;;;;5049488;28;20081;-67
2022/12/16 02:06:30;;;;;;;0.00;0.00;;;1.10;89.60;;;;;;5049735;28;20041;-66
2022/12/16 02:08:58;;;;;;;0.00;0.00;;;1.20;89.60;;;;;;5050461;28;20053;-67
2022/12/16 02:11:40;;;;;;;0.00;0.00;;;1.10;89.50;;;;;;5050708;28;20090;-67
2022/12/16 02:14:24;;;;;;;0.00;0.00;;;1.10;89.40;;;;;;5031357;28;20050;-67
2022/12/16 02:17:06;;;;;;;0.00;0.00;;;1.10;89.40;;;;;;5041975;28;20056;-66
2022/12/16 02:20:00;;;;;;;0.00;0.00;;;1.10;89.30;;;;;;5049566;28;20781;-66
2022/12/16 02:23:03;;;;;;;0.00;0.00;;;1.10;89.20;;;;;;5046949;28;20041;-67
2022/12/16 02:25:48;;;;;;;0.00;0.00;;;1.20;89.20;;;;;;5010647;28;20421;-66
2022/12/16 02:28:37;;;;;;;0.00;0.00;;;1.20;89.10;;;;;;5010575;28;20057;-66
2022/12/16 02:31:19;;;;;;;0.10;0.10;;;1.20;89.00;;;;;;4990952;28;20065;-67
2022/12/16 02:34:09;;;;;;;0.00;0.00;;;1.20;89.00;;;;;;4996232;28;20065;-67
2022/12/16 02:36:53;;;;;;;0.00;0.00;;;1.10;88.90;;;;;;5010668;28;20104;-66
2022/12/16 02:39:41;;;;;;;0.00;0.00;;;1.20;88.80;;;;;;4996714;28;20057;-67
2022/12/16 02:42:09;;;;;;;0.00;0.00;;;1.20;88.70;;;;;;5009086;28;20054;-67
2022/12/16 02:44:53;;;;;;;0.00;0.00;;;1.20;88.70;;;;;;5009647;28;20123;-67
2022/12/16 02:47:19;;;;;;;0.00;0.00;;;1.20;88.60;;;;;;5004571;28;20049;-66
2022/12/16 02:49:51;;;;;;;0.00;0.00;;;1.20;88.60;;;;;;5009191;28;20034;-67
2022/12/16 02:52:21;;;;;;;0.10;0.10;;;1.20;88.50;;;;;;5009321;28;20049;-66
2022/12/16 02:54:50;;;;;;;0.00;0.00;;;1.20;88.50;;;;;;5009800;28;20049;-66
2022/12/16 02:57:43;;;;;;;0.00;0.00;;;1.20;88.40;;;;;;5007405;28;20165;-66
2022/12/16 03:00:12;;;;;;;0.00;0.00;;;1.20;88.30;;;;;;5005030;28;20088;-66
2022/12/16 03:03:01;;;;;;;0.08;0.08;;;1.20;88.30;;;;;;5009116;28;20049;-66
2022/12/16 03:05:34;;;;;;;0.00;0.00;;;1.20;88.20;;;;;;4999933;28;20414;-66
2022/12/16 03:08:08;;;;;;;0.00;0.00;;;1.30;88.20;;;;;;5009164;28;20096;-67
2022/12/16 03:10:43;;;;;;;0.00;0.00;;;1.30;88.10;;;;;;5013392;28;20065;-67
2022/12/16 03:13:11;;;;;;;0.00;0.00;;;1.30;88.00;;;;;;5008746;28;20045;-67
2022/12/16 03:15:39;;;;;;;0.00;0.00;;;1.30;88.00;;;;;;5010190;28;20065;-66
2022/12/16 03:18:08;;;;;;;0.08;0.08;;;1.40;87.90;;;;;;5009504;28;20380;-66
2022/12/16 03:20:51;;;;;;;0.00;0.00;;;1.40;87.90;;;;;;5009691;28;20056;-65
2022/12/16 03:23:23;;;;;;;0.00;0.00;;;1.40;87.80;;;;;;5017165;28;20061;-66
2022/12/16 03:25:52;;;;;;;0.00;0.00;;;1.40;87.60;;;;;;5048401;28;20795;-65
2022/12/16 03:28:49;;;;;;;0.00;0.00;;;1.40;87.60;;;;;;5048981;28;20047;-66
2022/12/16 03:31:31;;;;;;;0.00;0.00;;;1.40;87.50;;;;;;5049063;28;20523;-65
2022/12/16 03:34:15;;;;;;;0.03;0.03;;;1.30;87.40;;;;;;5049435;28;20045;-66
2022/12/16 03:36:46;;;;;;;0.00;0.00;;;1.40;87.20;;;;;;5048701;28;20055;-66
2022/12/16 03:39:13;;;;;;;0.00;0.00;;;1.30;87.20;;;;;;5047335;28;20049;-66
2022/12/16 03:41:41;;;;;;;0.10;0.10;;;1.40;87.10;;;;;;5049543;28;20048;-66
2022/12/16 03:44:07;;;;;;;0.00;0.00;;;1.30;87.00;;;;;;5048726;28;20049;-66
2022/12/16 03:46:33;;;;;;;0.00;0.00;;;1.30;87.00;;;;;;5045562;28;20456;-66
2022/12/16 03:48:59;;;;;;;0.00;0.00;;;1.30;86.90;;;;;;5043270;28;20071;-66
2022/12/16 03:51:24;;;;;;;0.00;0.00;;;1.30;86.90;;;;;;5046262;28;20405;-66
2022/12/16 03:53:50;;;;;;;0.00;0.00;;;1.30;86.90;;;;;;5047276;28;20037;-66
2022/12/16 03:56:15;;;;;;;0.00;0.00;;;1.30;86.80;;;;;;5047269;28;20111;-65
2022/12/16 03:58:41;;;;;;;0.10;0.10;;;1.20;86.80;;;;;;5043362;28;20053;-66
2022/12/16 04:01:08;;;;;;;0.00;0.00;;;1.20;86.70;;;;;;5047783;28;20045;-66
2022/12/16 04:03:35;;;;;;;0.00;0.00;;;1.20;86.80;;;;;;5048759;28;20124;-65
2022/12/16 04:06:00;;;;;;;0.05;0.05;;;1.30;86.70;;;;;;5048731;28;20091;-66
2022/12/16 04:08:26;;;;;;;0.00;0.00;;;1.30;86.70;;;;;;5047870;28;20098;-65
2022/12/16 04:24:34;;;;;;;0.00;0.00;;;1.20;86.30;;;;;;5052765;28;20553;-66
2022/12/16 04:34:24;;;;;;;0.00;0.00;;;1.00;85.90;;;;;;5053385;28;20076;-66
